Time;durP1;ratioP1;P1;durP2;ratioP2;P2;SDS_P1;SDS_P2;PMS_P1;PMS_P2;Temp;Humidity;BMP_temperature;BMP_pressure;BME280_temperature;BME280_humidity;BME280_pressure;Samples;Min_cycle;Max_cycle;Signal;HPM_P1;HPM_P2
2021/12/31 00:23:56;;;;;;;;;12.00;9.67;;;;;-149.69;100.00;58464.25;6253723;22;46030;-96
2021/12/31 00:26:57;;;;;;;;;14.00;12.33;;;;;-149.69;100.00;58464.25;6269907;22;45602;-96
2021/12/31 00:29:55;;;;;;;;;12.00;10.00;;;;;-149.69;100.00;58464.25;6242320;22;44709;-96
2021/12/31 00:32:54;;;;;;;;;12.33;10.00;;;;;-149.69;100.00;58464.25;6267967;22;44805;-96
2021/12/31 00:35:41;;;;;;;;;8.00;6.33;;;;;-149.69;100.00;58464.25;6161923;22;44911;-96
2021/12/31 00:38:14;;;;;;;;;12.67;12.00;;;;;-149.69;100.00;58464.25;6172952;22;45529;-96
2021/12/31 00:41:25;;;;;;;;;13.67;10.00;;;;;-149.69;100.00;58464.25;6195636;22;44754;-96
2021/12/31 00:44:24;;;;;;;;;9.67;8.00;;;;;-149.69;100.00;58464.25;6234515;22;44752;-96
2021/12/31 00:47:06;;;;;;;;;12.33;12.33;;;;;-149.69;100.00;58464.25;6236144;22;44977;-96
2021/12/31 00:49:57;;;;;;;;;11.00;9.67;;;;;-149.69;100.00;58464.25;6235429;22;45625;-96
2021/12/31 00:52:50;;;;;;;;;9.67;8.33;;;;;-149.69;100.00;58464.25;6236513;22;44628;-96
2021/12/31 00:55:38;;;;;;;;;14.00;11.00;;;;;-149.69;100.00;58464.25;6215423;22;44775;-96
2021/12/31 00:58:07;;;;;;;;;11.00;9.00;;;;;-149.69;100.00;58464.25;6211669;22;44893;-96
2021/12/31 01:00:44;;;;;;;;;12.33;10.00;;;;;-149.69;100.00;58464.25;6236620;22;45890;-96
2021/12/31 01:03:18;;;;;;;;;9.67;9.67;;;;;-149.69;100.00;58464.25;6210025;22;44809;-96
2021/12/31 01:06:19;;;;;;;;;12.00;12.00;;;;;-149.69;100.00;58464.25;6225117;22;44678;-96
2021/12/31 01:08:46;;;;;;;;;14.67;13.00;;;;;-149.69;100.00;58464.25;6152017;22;44795;-96
2021/12/31 01:11:11;;;;;;;;;12.67;11.67;;;;;-149.69;100.00;58464.25;6258318;22;47090;-96
2021/12/31 01:14:00;;;;;;;;;18.33;12.33;;;;;-149.69;100.00;58464.25;6228797;22;45350;-96
2021/12/31 01:16:36;;;;;;;;;11.67;9.00;;;;;-149.69;100.00;58464.25;6254617;22;44818;-96
2021/12/31 01:21:30;;;;;;;;;14.00;12.33;;;;;-149.69;100.00;58464.25;6249144;22;45277;-96
2021/12/31 01:23:58;;;;;;;;;14.00;12.33;;;;;-149.69;100.00;58464.25;6252316;22;45331;-96
2021/12/31 01:26:24;;;;;;;;;16.00;12.00;;;;;-149.69;100.00;58464.25;6253286;22;45389;-96
2021/12/31 01:28:49;;;;;;;;;11.33;11.33;;;;;-149.69;100.00;58464.25;6253962;22;44796;-96
2021/12/31 01:31:15;;;;;;;;;12.67;10.67;;;;;-149.69;100.00;58464.25;6253028;22;47245;-96
2021/12/31 01:33:40;;;;;;;;;14.67;13.00;;;;;-149.69;100.00;58464.25;6255262;22;44586;-96
2021/12/31 01:36:06;;;;;;;;;12.00;10.00;;;;;-149.69;100.00;58464.25;6256423;22;44729;-96
2021/12/31 01:38:32;;;;;;;;;12.33;11.00;;;;;-149.69;100.00;58464.25;6257314;22;45187;-96
2021/12/31 01:40:58;;;;;;;;;24.67;18.33;;;;;-149.69;100.00;58464.25;6256408;22;45688;-96
2021/12/31 01:43:23;;;;;;;;;13.67;13.67;;;;;-149.69;100.00;58464.25;6255144;22;44833;-96
2021/12/31 01:45:55;;;;;;;;;15.33;14.00;;;;;-149.69;100.00;58464.25;6255479;22;45066;-96
2021/12/31 01:48:36;;;;;;;;;15.67;14.00;;;;;-149.69;100.00;58464.25;6253416;22;45283;-96
2021/12/31 01:51:02;;;;;;;;;13.33;12.67;;;;;-149.69;100.00;58464.25;6252876;22;47439;-96
2021/12/31 01:53:28;;;;;;;;;16.00;14.00;;;;;-149.69;100.00;58464.25;6252882;22;44697;-96
2021/12/31 01:55:57;;;;;;;;;12.33;11.00;;;;;-149.69;100.00;58464.25;6252903;22;45344;-96
2021/12/31 01:58:24;;;;;;;;;14.00;14.00;;;;;-149.69;100.00;58464.25;6277971;22;45262;-96
2021/12/31 02:00:51;;;;;;;;;10.00;10.00;;;;;-149.69;100.00;58464.25;6250018;22;47285;-96
2021/12/31 02:03:21;;;;;;;;;13.00;11.33;;;;;-149.69;100.00;58464.25;6249446;22;44841;-96
2021/12/31 02:05:47;;;;;;;;;12.33;12.00;;;;;-149.69;100.00;58464.25;6250529;22;45274;-96
2021/12/31 02:08:14;;;;;;;;;12.67;12.67;;;;;-149.69;100.00;58464.25;6250149;22;45315;-96
2021/12/31 02:10:40;;;;;;;;;13.67;11.00;;;;;-149.69;100.00;58464.25;6251938;22;48381;-96
2021/12/31 02:13:08;;;;;;;;;11.00;11.00;;;;;-149.69;100.00;58464.25;6255641;22;45078;-96
2021/12/31 02:15:34;;;;;;;;;14.33;10.67;;;;;-149.69;100.00;58464.25;6229811;22;44866;-96
2021/12/31 02:18:00;;;;;;;;;15.00;14.00;;;;;-149.69;100.00;58464.25;6255107;22;44858;-96
2021/12/31 02:20:41;;;;;;;;;10.67;10.67;;;;;-149.69;100.00;58464.25;6251389;22;47084;-96
2021/12/31 02:23:16;;;;;;;;;14.67;12.33;;;;;-149.69;100.00;58464.25;6254443;22;45409;-96
2021/12/31 02:25:42;;;;;;;;;14.00;10.33;;;;;-149.69;100.00;58464.25;6254870;22;44772;-96
2021/12/31 02:28:07;;;;;;;;;11.00;11.00;;;;;-149.69;100.00;58464.25;6251591;22;45343;-96
2021/12/31 02:30:33;;;;;;;;;11.67;11.67;;;;;-149.69;100.00;58464.25;6251215;22;47341;-96
2021/12/31 02:32:59;;;;;;;;;15.33;11.33;;;;;-149.69;100.00;58464.25;6251612;22;45336;-96
2021/12/31 02:35:26;;;;;;;;;11.00;11.00;;;;;-149.69;100.00;58464.25;6252531;22;44624;-96
2021/12/31 02:37:52;;;;;;;;;13.33;11.00;;;;;-149.69;100.00;58464.25;6224315;22;45327;-96
2021/12/31 02:40:18;;;;;;;;;16.33;14.33;;;;;-149.69;100.00;58464.25;6248007;22;47038;-96
2021/12/31 02:42:45;;;;;;;;;18.00;14.50;;;;;-149.69;100.00;58464.25;6251893;22;45567;-96
2021/12/31 02:45:12;;;;;;;;;19.00;13.67;;;;;-149.69;100.00;58464.25;6259489;22;44714;-96
2021/12/31 02:47:43;;;;;;;;;13.67;13.00;;;;;-149.69;100.00;58464.25;6257044;22;44854;-96
2021/12/31 02:50:12;;;;;;;;;11.67;11.33;;;;;-149.69;100.00;58464.25;6257972;22;47177;-96
2021/12/31 02:52:39;;;;;;;;;15.00;13.67;;;;;-149.69;100.00;58464.25;6257519;22;45853;-96
2021/12/31 02:55:05;;;;;;;;;13.00;11.33;;;;;-149.69;100.00;58464.25;6258464;22;44697;-96
2021/12/31 02:57:31;;;;;;;;;11.67;11.00;;;;;-149.69;100.00;58464.25;6259821;22;45310;-96
2021/12/31 03:00:00;;;;;;;;;14.00;13.00;;;;;-149.69;100.00;58464.25;6261094;22;45690;-96
2021/12/31 03:02:27;;;;;;;;;10.67;10.00;;;;;-149.69;100.00;58464.25;6259675;22;45657;-96
2021/12/31 03:04:53;;;;;;;;;15.00;13.67;;;;;-149.69;100.00;58464.25;6286533;22;44909;-96
2021/12/31 03:07:22;;;;;;;;;17.00;16.00;;;;;-149.69;100.00;58464.25;6259978;22;44919;-96
2021/12/31 03:09:52;;;;;;;;;15.33;14.00;;;;;-149.69;100.00;58464.25;6259432;22;46086;-96
2021/12/31 03:12:18;;;;;;;;;14.00;12.33;;;;;-149.69;100.00;58464.25;6259003;22;44781;-96
2021/12/31 03:14:47;;;;;;;;;17.67;16.67;;;;;-149.69;100.00;58464.25;6257825;22;44724;-96
2021/12/31 03:17:15;;;;;;;;;24.67;17.67;;;;;-149.69;100.00;58464.25;6233303;22;45403;-96
2021/12/31 03:19:43;;;;;;;;;14.67;12.00;;;;;-149.69;100.00;58464.25;6259286;22;46007;-96
2021/12/31 03:22:11;;;;;;;;;17.00;14.33;;;;;-149.69;100.00;58464.25;6259143;22;45207;-96
2021/12/31 03:24:37;;;;;;;;;13.00;13.00;;;;;-149.69;100.00;58464.25;6285299;22;44763;-96
2021/12/31 03:27:04;;;;;;;;;11.00;11.00;;;;;-149.69;100.00;58464.25;6257628;22;44856;-96
2021/12/31 03:29:30;;;;;;;;;15.67;13.67;;;;;-149.69;100.00;58464.25;6282312;22;47465;-96
2021/12/31 03:31:55;;;;;;;;;12.67;10.00;;;;;-149.69;100.00;58464.25;6257512;22;45344;-96
2021/12/31 03:34:21;;;;;;;;;16.33;16.00;;;;;-149.69;100.00;58464.25;6256803;22;44678;-96
2021/12/31 03:36:47;;;;;;;;;13.00;12.67;;;;;-149.69;100.00;58464.25;6282508;22;45544;-96
2021/12/31 03:39:13;;;;;;;;;12.67;12.33;;;;;-149.69;100.00;58464.25;6253885;22;46399;-96
2021/12/31 03:41:39;;;;;;;;;18.00;13.67;;;;;-149.69;100.00;58464.25;6225472;22;45989;-96
2021/12/31 03:44:06;;;;;;;;;15.33;12.67;;;;;-149.69;100.00;58464.25;6226096;22;44796;-96
2021/12/31 03:46:32;;;;;;;;;14.00;14.00;;;;;-149.69;100.00;58464.25;6225572;22;44916;-96
2021/12/31 03:48:58;;;;;;;;;15.67;13.00;;;;;-149.69;100.00;58464.25;6231167;22;46435;-96
2021/12/31 03:51:23;;;;;;;;;16.00;15.00;;;;;-149.69;100.00;58464.25;6226780;22;45166;-96
2021/12/31 03:53:49;;;;;;;;;15.33;15.00;;;;;-149.69;100.00;58464.25;6226363;22;45488;-96
2021/12/31 03:56:15;;;;;;;;;17.33;17.00;;;;;-149.69;100.00;58464.25;6226715;22;45119;-96
2021/12/31 03:58:40;;;;;;;;;26.00;21.33;;;;;-149.69;100.00;58464.25;6225805;22;46860;-96
2021/12/31 04:01:06;;;;;;;;;18.00;17.00;;;;;-149.69;100.00;58464.25;6227200;22;45353;-96
2021/12/31 04:03:32;;;;;;;;;18.67;15.33;;;;;-149.69;100.00;58464.25;6224716;22;44736;-96
2021/12/31 04:05:58;;;;;;;;;16.33;15.00;;;;;-149.69;100.00;58464.25;6223244;22;44960;-96
2021/12/31 04:08:23;;;;;;;;;16.67;16.00;;;;;-149.69;100.00;58464.25;6221458;22;46445;-96
2021/12/31 04:10:49;;;;;;;;;10.33;10.33;;;;;-149.69;100.00;58464.25;6247664;22;44835;-96
2021/12/31 04:13:14;;;;;;;;;13.00;11.00;;;;;-149.69;100.00;58464.25;6223311;22;44721;-96
2021/12/31 04:15:40;;;;;;;;;14.00;12.00;;;;;-149.69;100.00;58464.25;6224574;22;44944;-96
2021/12/31 04:18:06;;;;;;;;;13.33;9.00;;;;;-149.69;100.00;58464.25;6224847;22;47382;-96
2021/12/31 04:20:38;;;;;;;;;18.00;15.00;;;;;-149.69;100.00;58464.25;6226214;22;44957;-96
2021/12/31 04:23:12;;;;;;;;;14.00;9.00;;;;;-149.69;100.00;58464.25;6223596;22;45413;-96
2021/12/31 04:25:37;;;;;;;;;11.67;11.67;;;;;-149.69;100.00;58464.25;6222002;22;44808;-96
2021/12/31 04:28:05;;;;;;;;;14.67;12.67;;;;;-149.69;100.00;58464.25;6223757;22;47107;-96
2021/12/31 04:30:30;;;;;;;;;13.33;12.67;;;;;-149.69;100.00;58464.25;6225082;22;45404;-96
2021/12/31 04:32:56;;;;;;;;;13.00;10.00;;;;;-149.69;100.00;58464.25;6224483;22;44875;-96
2021/12/31 04:35:22;;;;;;;;;14.33;11.00;;;;;-149.69;100.00;58464.25;6225348;22;44793;-96
2021/12/31 04:37:47;;;;;;;;;21.67;19.67;;;;;-149.69;100.00;58464.25;6225406;22;48224;-96
2021/12/31 04:40:14;;;;;;;;;23.67;21.33;;;;;-149.69;100.00;58464.25;6237716;22;44805;-96
2021/12/31 04:42:43;;;;;;;;;26.67;24.67;;;;;-149.69;100.00;58464.25;6230266;22;44889;-96
2021/12/31 04:45:13;;;;;;;;;26.33;24.67;;;;;-149.69;100.00;58464.25;6257501;22;45300;-96
2021/12/31 04:47:39;;;;;;;;;19.33;19.33;;;;;-149.69;100.00;58464.25;6258349;22;47046;-96
2021/12/31 04:50:06;;;;;;;;;18.67;18.67;;;;;-149.69;100.00;58464.25;6258879;22;44627;-96
2021/12/31 04:52:33;;;;;;;;;16.67;15.00;;;;;-149.69;100.00;58464.25;6259545;22;44698;-96
2021/12/31 04:54:59;;;;;;;;;16.67;13.00;;;;;-149.69;100.00;58464.25;6257633;22;44750;-96
2021/12/31 04:57:26;;;;;;;;;19.67;18.33;;;;;-149.69;100.00;58464.25;6283201;22;48345;-96
2021/12/31 04:59:52;;;;;;;;;23.67;17.00;;;;;-149.69;100.00;58464.25;6258046;22;44758;-96
2021/12/31 05:02:18;;;;;;;;;20.67;18.33;;;;;-149.69;100.00;58464.25;6258787;22;44775;-96
2021/12/31 05:04:44;;;;;;;;;23.00;21.67;;;;;-149.69;100.00;58464.25;6257484;22;44925;-96
2021/12/31 05:07:09;;;;;;;;;16.67;16.67;;;;;-149.69;100.00;58464.25;6256134;22;45198;-96
2021/12/31 05:09:35;;;;;;;;;22.00;18.00;;;;;-149.69;100.00;58464.25;6254513;22;45261;-96
2021/12/31 05:12:04;;;;;;;;;17.67;17.00;;;;;-149.69;100.00;58464.25;6229203;22;44671;-96
2021/12/31 05:14:29;;;;;;;;;16.33;14.33;;;;;-149.69;100.00;58464.25;6256013;22;45382;-96
2021/12/31 05:16:55;;;;;;;;;15.00;12.67;;;;;-149.69;100.00;58464.25;6253427;22;47202;-96
2021/12/31 05:19:20;;;;;;;;;17.33;16.00;;;;;-149.69;100.00;58464.25;6251928;22;45400;-96
2021/12/31 05:21:47;;;;;;;;;14.67;13.00;;;;;-149.69;100.00;58464.25;6258505;22;44823;-96
2021/12/31 05:24:16;;;;;;;;;19.33;14.67;;;;;-149.69;100.00;58464.25;6261984;22;45201;-96
2021/12/31 05:26:43;;;;;;;;;13.67;12.33;;;;;-149.69;100.00;58464.25;6235210;22;47001;-96
2021/12/31 05:29:08;;;;;;;;;11.00;10.67;;;;;-149.69;100.00;58464.25;6257467;22;44883;-96
2021/12/31 05:31:35;;;;;;;;;9.00;5.00;;;;;-149.69;100.00;58464.25;6257501;22;44747;-96
2021/12/31 05:34:03;;;;;;;;;8.67;8.67;;;;;-149.69;100.00;58464.25;6260356;22;45330;-96
2021/12/31 05:36:34;;;;;;;;;9.67;9.00;;;;;-149.69;100.00;58464.25;6262525;22;45182;-96
2021/12/31 05:39:00;;;;;;;;;9.67;9.67;;;;;-149.69;100.00;58464.25;6259009;22;44739;-96
2021/12/31 05:41:39;;;;;;;;;6.33;6.33;;;;;-149.69;100.00;58464.25;6287334;22;44735;-96
2021/12/31 05:44:11;;;;;;;;;10.00;9.33;;;;;-149.69;100.00;58464.25;6264670;22;44757;-96
2021/12/31 05:46:48;;;;;;;;;12.33;9.33;;;;;-149.69;100.00;58464.25;6268849;22;45511;-96
2021/12/31 05:49:34;;;;;;;;;7.33;7.33;;;;;-149.69;100.00;58464.25;6290399;22;44668;-96
2021/12/31 05:52:04;;;;;;;;;11.33;9.00;;;;;-149.69;100.00;58464.25;6266350;22;44778;-96
2021/12/31 05:54:31;;;;;;;;;12.00;9.67;;;;;-149.69;100.00;58464.25;6264796;22;45325;-96
2021/12/31 05:57:11;;;;;;;;;9.67;8.00;;;;;-149.69;100.00;58464.25;6264891;22;45418;-96
2021/12/31 05:59:42;;;;;;;;;7.00;4.33;;;;;-149.69;100.00;58464.25;6266630;22;45267;-96
2021/12/31 06:02:18;;;;;;;;;6.00;5.33;;;;;-149.69;100.00;58464.25;6266860;22;44765;-96
2021/12/31 06:04:45;;;;;;;;;4.67;4.00;;;;;-149.69;100.00;58464.25;6262850;22;44940;-96
2021/12/31 06:07:14;;;;;;;;;5.00;5.00;;;;;-149.69;100.00;58464.25;6264110;22;45712;-96
2021/12/31 06:09:41;;;;;;;;;4.00;4.00;;;;;-149.69;100.00;58464.25;6239593;22;45358;-96
2021/12/31 06:12:16;;;;;;;;;5.00;5.00;;;;;-149.69;100.00;58464.25;6288798;22;45135;-96
2021/12/31 06:14:45;;;;;;;;;7.33;5.33;;;;;-149.69;100.00;58464.25;6289146;22;44821;-96
2021/12/31 06:17:12;;;;;;;;;5.00;5.00;;;;;-149.69;100.00;58464.25;6289826;22;47465;-96
2021/12/31 06:19:40;;;;;;;;;5.00;4.67;;;;;-149.69;100.00;58464.25;6265013;22;44753;-96
2021/12/31 06:22:09;;;;;;;;;4.33;4.33;;;;;-149.69;100.00;58464.25;6236901;22;44750;-96
2021/12/31 06:24:37;;;;;;;;;4.67;4.00;;;;;-149.69;100.00;58464.25;6264525;22;44840;-96
2021/12/31 06:27:04;;;;;;;;;5.00;5.00;;;;;-149.69;100.00;58464.25;6261834;22;47120;-96
2021/12/31 06:29:30;;;;;;;;;4.00;4.00;;;;;-149.69;100.00;58464.25;6237463;22;44759;-96
2021/12/31 06:31:57;;;;;;;;;4.33;4.33;;;;;-149.69;100.00;58464.25;6262379;22;44849;-96
2021/12/31 06:34:31;;;;;;;;;6.33;6.00;;;;;-149.69;100.00;58464.25;6265311;22;44860;-96
2021/12/31 06:36:57;;;;;;;;;5.00;5.00;;;;;-149.69;100.00;58464.25;6254077;22;45625;-96
2021/12/31 06:39:25;;;;;;;;;4.00;4.00;;;;;-149.69;100.00;58464.25;6252828;22;45672;-96
2021/12/31 06:41:51;;;;;;;;;6.00;4.67;;;;;-149.69;100.00;58464.25;6277584;22;44681;-96
2021/12/31 06:44:16;;;;;;;;;6.00;6.00;;;;;-149.69;100.00;58464.25;6250027;22;45371;-96
2021/12/31 06:46:42;;;;;;;;;5.33;4.33;;;;;-149.69;100.00;58464.25;6250278;22;47325;-96
2021/12/31 06:49:07;;;;;;;;;3.00;3.00;;;;;-149.69;100.00;58464.25;6251369;22;45153;-96
2021/12/31 06:51:32;;;;;;;;;5.00;4.00;;;;;-149.69;100.00;58464.25;6251080;22;45013;-96
2021/12/31 06:53:58;;;;;;;;;7.00;5.00;;;;;-149.69;100.00;58464.25;6280559;22;45423;-96
2021/12/31 06:56:24;;;;;;;;;4.00;4.00;;;;;-149.69;100.00;58464.25;6255046;22;46856;-96
2021/12/31 06:58:49;;;;;;;;;5.00;4.00;;;;;-149.69;100.00;58464.25;6251919;22;44737;-96
2021/12/31 07:01:14;;;;;;;;;6.67;6.67;;;;;-149.69;100.00;58464.25;6254046;22;45363;-96
2021/12/31 07:03:40;;;;;;;;;6.00;6.00;;;;;-149.69;100.00;58464.25;6250550;22;44797;-96
2021/12/31 07:06:05;;;;;;;;;9.00;8.33;;;;;-149.69;100.00;58464.25;6253594;22;47096;-96
2021/12/31 07:08:31;;;;;;;;;5.00;5.00;;;;;-149.69;100.00;58464.25;6251251;22;44842;-96
2021/12/31 07:10:58;;;;;;;;;8.00;8.00;;;;;-149.69;100.00;58464.25;6280362;22;44818;-96
2021/12/31 07:13:26;;;;;;;;;9.67;5.00;;;;;-149.69;100.00;58464.25;6257098;22;44852;-96
2021/12/31 07:15:54;;;;;;;;;8.67;6.67;;;;;-149.69;100.00;58464.25;6256491;22;46297;-96
2021/12/31 07:18:21;;;;;;;;;9.67;9.00;;;;;-149.69;100.00;58464.25;6257292;22;44749;-96
2021/12/31 07:20:47;;;;;;;;;8.33;6.33;;;;;-149.69;100.00;58464.25;6256453;22;45309;-96
2021/12/31 07:23:15;;;;;;;;;8.00;7.33;;;;;-149.69;100.00;58464.25;6256108;22;44844;-96
2021/12/31 07:25:42;;;;;;;;;10.00;10.00;;;;;-149.69;100.00;58464.25;6256285;22;48193;-96
2021/12/31 07:28:09;;;;;;;;;11.33;8.33;;;;;-149.69;100.00;58464.25;6253390;22;45396;-96
2021/12/31 07:30:35;;;;;;;;;12.00;9.00;;;;;-149.69;100.00;58464.25;6279213;22;45392;-96
2021/12/31 07:33:01;;;;;;;;;9.00;8.00;;;;;-149.69;100.00;58464.25;6265189;22;45445;-94
2021/12/31 07:35:38;;;;;;;;;10.67;9.00;;;;;-149.69;100.00;58464.25;6242395;22;46879;-94
2021/12/31 07:38:06;;;;;;;;;11.00;9.00;;;;;-149.69;100.00;58464.25;6254817;22;46247;-96
2021/12/31 07:40:39;;;;;;;;;13.00;11.00;;;;;-149.69;100.00;58464.25;6251483;22;45298;-96
2021/12/31 07:43:07;;;;;;;;;22.33;17.67;;;;;-149.69;100.00;58464.25;6252360;22;44839;-94
2021/12/31 07:45:34;;;;;;;;;16.33;15.00;;;;;-149.69;100.00;58464.25;6253975;22;46985;-95
2021/12/31 07:48:01;;;;;;;;;14.00;13.67;;;;;-149.69;100.00;58464.25;6248654;22;46001;-95
2021/12/31 07:50:27;;;;;;;;;10.00;9.00;;;;;-149.69;100.00;58464.25;6248878;22;44833;-95
2021/12/31 07:52:52;;;;;;;;;10.00;10.00;;;;;-149.69;100.00;58464.25;6254706;22;45239;-96
2021/12/31 07:55:18;;;;;;;;;11.33;9.00;;;;;-149.69;100.00;58464.25;6251037;22;45191;-94
2021/12/31 07:57:43;;;;;;;;;11.33;10.00;;;;;-149.69;100.00;58464.25;6250167;22;45191;-95
2021/12/31 08:00:09;;;;;;;;;10.00;8.67;;;;;-149.69;100.00;58464.25;6249375;22;45250;-94
2021/12/31 08:02:34;;;;;;;;;12.33;10.67;;;;;-149.69;100.00;58464.25;6241413;22;45550;-94
2021/12/31 08:05:00;;;;;;;;;12.67;11.00;;;;;-149.69;100.00;58464.25;6241781;22;46803;-93
2021/12/31 08:07:26;;;;;;;;;12.33;9.00;;;;;-149.69;100.00;58464.25;6242918;22;45337;-96
2021/12/31 08:09:52;;;;;;;;;13.00;12.33;;;;;-149.69;100.00;58464.25;6275748;22;45323;-96
2021/12/31 08:12:18;;;;;;;;;12.67;10.33;;;;;-149.69;100.00;58464.25;6270346;22;44990;-96
2021/12/31 08:14:45;;;;;;;;;14.00;12.33;;;;;-149.69;100.00;58464.25;6258832;22;47557;-95
2021/12/31 08:17:12;;;;;;;;;15.00;13.00;;;;;-149.69;100.00;58464.25;6252327;22;45349;-96
2021/12/31 08:19:37;;;;;;;;;12.00;9.00;;;;;-149.69;100.00;58464.25;6254953;22;45238;-96
2021/12/31 08:22:03;;;;;;;;;8.33;8.00;;;;;-149.69;100.00;58464.25;6276055;22;44695;-94
2021/12/31 08:27:05;;;;;;;;;10.33;10.00;;;;;-149.69;100.00;58464.25;6223013;22;45502;-94
2021/12/31 08:29:30;;;;;;;;;13.33;10.33;;;;;-149.69;100.00;58464.25;6193463;22;45446;-94
2021/12/31 08:31:55;;;;;;;;;11.00;10.33;;;;;-149.69;100.00;58464.25;6217932;22;45395;-93
2021/12/31 08:34:22;;;;;;;;;15.00;14.33;;;;;-149.69;100.00;58464.25;6220008;22;46929;-94
2021/12/31 08:36:47;;;;;;;;;18.00;12.00;;;;;-149.69;100.00;58464.25;6190896;22;45292;-94
2021/12/31 08:39:13;;;;;;;;;17.00;16.33;;;;;-149.69;100.00;58464.25;6215963;22;45892;-92
2021/12/31 08:41:40;;;;;;;;;17.67;16.33;;;;;-149.69;100.00;58464.25;6214016;22;45437;-92
2021/12/31 08:44:06;;;;;;;;;23.00;19.67;;;;;-149.69;100.00;58464.25;6220744;22;48006;-91
2021/12/31 08:46:33;;;;;;;;;18.67;17.67;;;;;-149.69;100.00;58464.25;6213270;22;45330;-95
2021/12/31 08:48:58;;;;;;;;;16.00;12.67;;;;;-149.69;100.00;58464.25;6217652;22;45316;-93
2021/12/31 08:51:25;;;;;;;;;22.00;19.00;;;;;-149.69;100.00;58464.25;6219418;22;45205;-93
2021/12/31 08:53:51;;;;;;;;;23.67;19.67;;;;;-149.69;100.00;58464.25;6213724;22;47514;-91
2021/12/31 08:56:17;;;;;;;;;21.00;21.00;;;;;-149.69;100.00;58464.25;6209490;22;45392;-91
2021/12/31 08:58:42;;;;;;;;;22.67;19.67;;;;;-149.69;100.00;58464.25;6208285;22;45362;-91
2021/12/31 09:01:07;;;;;;;;;19.00;17.00;;;;;-149.69;100.00;58464.25;6210781;22;45497;-92
2021/12/31 09:03:33;;;;;;;;;23.00;18.67;;;;;-149.69;100.00;58464.25;6205388;22;48433;-90
2021/12/31 09:05:58;;;;;;;;;17.00;16.33;;;;;-149.69;100.00;58464.25;6215611;22;46120;-93
2021/12/31 09:08:23;;;;;;;;;14.67;14.00;;;;;-149.69;100.00;58464.25;6218294;22;45715;-94
2021/12/31 09:10:50;;;;;;;;;19.67;18.00;;;;;-149.69;100.00;58464.25;6237733;22;45347;-92
2021/12/31 09:13:16;;;;;;;;;24.33;21.33;;;;;-149.69;100.00;58464.25;6210071;22;46342;-90
2021/12/31 09:15:41;;;;;;;;;22.67;19.67;;;;;-149.69;100.00;58464.25;6212265;22;45395;-91
2021/12/31 09:18:07;;;;;;;;;20.00;18.67;;;;;-149.69;100.00;58464.25;6209116;22;45733;-91
2021/12/31 09:20:32;;;;;;;;;17.67;17.67;;;;;-149.69;100.00;58464.25;6214126;22;45626;-92
2021/12/31 09:22:58;;;;;;;;;21.00;19.00;;;;;-149.69;100.00;58464.25;6234822;22;46901;-95
2021/12/31 09:25:23;;;;;;;;;24.00;18.33;;;;;-149.69;100.00;58464.25;6235166;22;45404;-94
2021/12/31 09:27:49;;;;;;;;;19.33;17.33;;;;;-149.69;100.00;58464.25;6211539;22;45174;-91
2021/12/31 09:30:14;;;;;;;;;17.67;16.67;;;;;-149.69;100.00;58464.25;6209936;22;45366;-91
2021/12/31 09:32:40;;;;;;;;;17.33;15.33;;;;;-149.69;100.00;58464.25;6237477;22;47843;-92
2021/12/31 09:35:06;;;;;;;;;16.33;16.33;;;;;-149.69;100.00;58464.25;6235691;22;45365;-91
2021/12/31 09:37:32;;;;;;;;;17.67;15.00;;;;;-149.69;100.00;58464.25;6211747;22;45359;-91
2021/12/31 09:39:58;;;;;;;;;17.33;14.33;;;;;-149.69;100.00;58464.25;6208505;22;45368;-91
2021/12/31 09:42:24;;;;;;;;;12.33;12.33;;;;;-149.69;100.00;58464.25;6202154;22;47375;-92
2021/12/31 09:44:49;;;;;;;;;14.33;11.33;;;;;-149.69;100.00;58464.25;6209564;22;45721;-95
2021/12/31 09:47:17;;;;;;;;;11.00;11.00;;;;;-149.69;100.00;58464.25;6215247;22;45491;-94
2021/12/31 09:49:43;;;;;;;;;7.67;7.67;;;;;-149.69;100.00;58464.25;6212549;22;45373;-92
2021/12/31 09:52:11;;;;;;;;;9.33;9.33;;;;;-149.69;100.00;58464.25;6207809;22;47119;-92
2021/12/31 09:54:41;;;;;;;;;10.00;8.67;;;;;-149.69;100.00;58464.25;6207269;22;45382;-91
2021/12/31 09:57:20;;;;;;;;;10.33;9.33;;;;;-149.69;100.00;58464.25;6208015;22;45729;-91
2021/12/31 09:59:46;;;;;;;;;11.33;10.00;;;;;-149.69;100.00;58464.25;6208327;22;45373;-91
2021/12/31 10:02:13;;;;;;;;;11.00;11.00;;;;;-149.69;100.00;58464.25;6205847;22;46204;-91
2021/12/31 10:04:55;;;;;;;;;12.00;10.00;;;;;-149.69;100.00;58464.25;6206590;22;45327;-91
2021/12/31 10:07:23;;;;;;;;;15.67;12.33;;;;;-149.69;100.00;58464.25;6232155;22;45389;-92
2021/12/31 10:10:24;;;;;;;;;13.67;12.33;;;;;-149.69;100.00;58464.25;6207450;22;45324;-91
2021/12/31 10:12:58;;;;;;;;;17.33;17.33;;;;;-149.69;100.00;58464.25;6060071;23;46873;-92
2021/12/31 10:15:25;;;;;;;;;11.00;11.00;;;;;-149.69;100.00;58464.25;6087110;23;45370;-91
2021/12/31 10:17:51;;;;;;;;;18.33;17.33;;;;;-149.69;100.00;58464.25;6062320;23;45406;-91
2021/12/31 10:20:18;;;;;;;;;18.00;16.00;;;;;-149.69;100.00;58464.25;6063813;23;45536;-92
2021/12/31 10:22:45;;;;;;;;;12.67;12.67;;;;;-149.69;100.00;58464.25;6065177;23;47220;-93
2021/12/31 10:25:18;;;;;;;;;24.00;21.00;;;;;-149.69;100.00;58464.25;6064350;23;45347;-93
2021/12/31 10:27:43;;;;;;;;;27.67;25.67;;;;;-149.69;100.00;58464.25;6063586;23;45633;-90
2021/12/31 10:30:09;;;;;;;;;300.50;254.00;;;;;-149.69;100.00;58464.25;6061524;23;45384;-93
2021/12/31 10:32:40;;;;;;;;;119.50;98.75;;;;;-149.69;100.00;58464.25;6030863;23;47120;-90
2021/12/31 10:35:20;;;;;;;;;37.50;30.25;;;;;-149.69;100.00;58464.25;6055376;23;45385;-91
2021/12/31 10:37:47;;;;;;;;;29.00;26.67;;;;;-149.69;100.00;58464.25;6031335;23;45367;-93
2021/12/31 10:40:25;;;;;;;;;54.75;42.00;;;;;-149.69;100.00;58464.25;6055400;23;45282;-91
2021/12/31 10:43:15;;;;;;;;;32.67;28.00;;;;;-149.69;100.00;58464.25;6030862;23;46998;-92
2021/12/31 10:45:53;;;;;;;;;33.00;30.33;;;;;-149.69;100.00;58464.25;6030779;23;45345;-88
2021/12/31 10:48:18;;;;;;;;;37.25;35.25;;;;;-149.69;100.00;58464.25;6125319;22;45415;-91
2021/12/31 10:50:52;;;;;;;;;29.67;23.67;;;;;-149.69;100.00;58464.25;6206931;22;51085;-90
2021/12/31 10:53:33;;;;;;;;;20.00;18.00;;;;;-149.69;100.00;58464.25;6205280;22;48180;-89
2021/12/31 10:56:07;;;;;;;;;37.00;30.67;;;;;-149.69;100.00;58464.25;6178196;22;45460;-89
2021/12/31 10:58:32;;;;;;;;;60.00;48.75;;;;;-149.69;100.00;58464.25;6206144;22;45423;-90
2021/12/31 11:00:59;;;;;;;;;88.25;69.25;;;;;-149.69;100.00;58464.25;6204168;22;45634;-89
2021/12/31 11:03:24;;;;;;;;;51.25;41.75;;;;;-149.69;100.00;58464.25;6204997;22;48442;-92
2021/12/31 11:05:50;;;;;;;;;17.00;13.00;;;;;-149.69;100.00;58464.25;6206476;22;45196;-91
2021/12/31 11:08:17;;;;;;;;;13.00;13.00;;;;;-149.69;100.00;58464.25;6204944;22;46896;-91
2021/12/31 11:10:42;;;;;;;;;6.00;6.00;;;;;-149.69;100.00;58464.25;6179471;22;45578;-91
2021/12/31 11:13:10;;;;;;;;;8.67;8.33;;;;;-149.69;100.00;58464.25;6204807;22;46912;-92
2021/12/31 11:15:36;;;;;;;;;10.00;10.00;;;;;-149.69;100.00;58464.25;6205344;22;45318;-92
2021/12/31 11:18:02;;;;;;;;;9.00;7.67;;;;;-149.69;100.00;58464.25;6206162;22;45413;-91
2021/12/31 11:20:28;;;;;;;;;10.33;8.67;;;;;-149.69;100.00;58464.25;6180987;22;45438;-91
2021/12/31 11:22:53;;;;;;;;;8.67;7.33;;;;;-149.69;100.00;58464.25;6206009;22;46362;-91
2021/12/31 11:25:21;;;;;;;;;6.00;6.00;;;;;-149.69;100.00;58464.25;6207165;22;45334;-91
2021/12/31 11:27:47;;;;;;;;;10.33;9.00;;;;;-149.69;100.00;58464.25;6207654;22;45157;-90
2021/12/31 11:30:39;;;;;;;;;6.67;5.33;;;;;-149.69;100.00;58464.25;6182026;22;45501;-91
2021/12/31 11:33:06;;;;;;;;;5.67;4.00;;;;;-149.69;100.00;58464.25;6205508;22;47586;-91